Pagina principale
METAR-TAF:

METAR-TAF

Aeroporti :

Ferrara, Italia

latitudine: 44-50N, longitudine: 011-37E, altezza: 10 m

Osservazione

Il bollettino è stato emesso 33 minuti fa, alle 11:55 UTC
Vento 10 kt da ovest
Temperature 11°C
Umidità 76%
Pressione 998 hPa
Visibilità 10 km o più
Nuvoloso ad un'altezza di 8000 ft

METAR: LIPF 131155Z 27010KT 9999 BKN080 11/07 Q0998 RMK BKN VIS MIN 9999

Ora: 13:28 (12:28 UTC)


TAF: mancante

Osservazioni e previsioni meteorologiche di più di 4000 aeroporti (messaggi METAR e TAF).

Le stazioni disponibili sono rappresentate dai dischi gialli e rossi sulla carta.

Puntare il mouse per vedere il nome della stazione.

Clicca sopra per visualizzare le osservazioni e previsioni meteorologiche.

Per cambiare la mappa : fare clic sui pulsanti verdi con una croce nera per ingrandire, il pulsante verde con un trattino per diminuire, o sulla freccia verde per le mappe adiacenti.


METAR-TAF: